»·PEaware :: DCM2499 KPDX-KBOI

DCM2499 :: KPDX-KBOI

FLIGHT INFORMATION

Flight Status: Arrived
Operator: DotCom
More flights by this operator :: More flights under this callsign
Pilot: Alec D. (17934)
Aircraft: GATES LEARJET LEARJET 35/36
(LJ35)
More flights by this aircraft type
Origin: KPDX Portland Intl
United States
Destination: KBOI Boise Air Terminal/Gowen
United States
More flights between these airports :: More routes between these airports
Route: WHAMY4 IMB HOSTS PARMO3
File this flight plan on PilotEdge
Remarks:
Altitude:
(Current/Filed)
33,000ft
Speed:
(Current/Filed)
430kts
Departed: 23-Dec-18 09:36 PM
Arrived: 23-Dec-18 10:29 PM
Distance/Time
Traveled:
298nm/0:53
Distance/Time
To Go:
Arrived

Flight Plot

Page will automatically refresh every two minutes.

Flight plan parsing failed; only flown route is shown


Map Options




Map Legend


Flown Route
Filed Route
Departure Airport
Arrival Airport
Navaid (VOR, NDB)
Fix

Horizontal Profiles

Position Reports

Time Latitude Longitude Heading Altitude Ground
Speed
23-Dec-18 21:13 45.584834 -122.578296 208 32ft 0kts
23-Dec-18 21:14 45.584834 -122.578296 208 32ft 0kts
23-Dec-18 21:15 45.584834 -122.578296 208 32ft 0kts
23-Dec-18 21:16 45.584834 -122.578296 208 32ft 0kts
23-Dec-18 21:17 45.584834 -122.578296 208 32ft 0kts
23-Dec-18 21:18 45.584834 -122.578296 208 32ft 0kts
23-Dec-18 21:19 45.584834 -122.578296 208 32ft 0kts
23-Dec-18 21:20 45.584834 -122.578296 208 32ft 0kts
23-Dec-18 21:21 45.584834 -122.578296 208 32ft 0kts
23-Dec-18 21:22 45.584834 -122.578296 208 32ft 0kts
23-Dec-18 21:23 45.584834 -122.578296 208 32ft 0kts
23-Dec-18 21:24 45.584834 -122.578296 208 32ft 0kts
23-Dec-18 21:25 45.584834 -122.578296 208 32ft 0kts
23-Dec-18 21:26 45.584834 -122.578296 208 32ft 0kts
23-Dec-18 21:27 45.584834 -122.578296 208 32ft 0kts
23-Dec-18 21:28 45.584834 -122.578296 208 32ft 0kts
23-Dec-18 21:29 45.584767 -122.577915 27 33ft 7kts
23-Dec-18 21:30 45.586506 -122.577150 115 33ft 10kts
23-Dec-18 21:31 45.584422 -122.571910 120 33ft 16kts
23-Dec-18 21:32 45.583576 -122.569166 41 32ft 0kts
23-Dec-18 21:33 45.583578 -122.569163 41 32ft 0kts
23-Dec-18 21:34 45.583581 -122.569160 41 33ft 0kts
23-Dec-18 21:35 45.590445 -122.584304 299 157ft 153kts
23-Dec-18 21:36 45.616771 -122.655014 297 4732ft 225kts
23-Dec-18 21:37 45.643738 -122.739797 288 6667ft 257kts
23-Dec-18 21:38 45.675883 -122.845438 277 10254ft 292kts
23-Dec-18 21:39 45.630307 -122.927744 193 14728ft 315kts
23-Dec-18 21:40 45.542279 -122.885443 143 14982ft 358kts
23-Dec-18 21:41 45.500227 -122.751260 120 14997ft 383kts
23-Dec-18 21:42 45.454507 -122.611510 119 19150ft 387kts
23-Dec-18 21:43 45.409005 -122.466943 119 22231ft 414kts
23-Dec-18 21:44 45.360467 -122.312751 118 24944ft 436kts
23-Dec-18 21:45 45.309703 -122.152412 118 27331ft 454kts
23-Dec-18 21:46 45.256539 -121.985555 117 29466ft 469kts
23-Dec-18 21:47 45.211472 -121.813220 110 31949ft 468kts
23-Dec-18 21:48 45.166873 -121.637899 111 33128ft 482kts
23-Dec-18 21:49 45.119298 -121.454268 111 33135ft 506kts
23-Dec-18 21:50 45.069622 -121.264226 111 33133ft 523kts
23-Dec-18 21:51 45.018625 -121.070733 111 33119ft 525kts
23-Dec-18 21:52 44.967377 -120.877887 111 33120ft 524kts
23-Dec-18 21:53 44.916241 -120.687021 111 33117ft 517kts
23-Dec-18 21:54 44.865270 -120.498283 111 33115ft 511kts
23-Dec-18 21:55 44.814712 -120.312537 112 33113ft 506kts
23-Dec-18 21:56 44.764001 -120.127646 112 33111ft 503kts
23-Dec-18 21:57 44.713530 -119.945021 112 33112ft 500kts
23-Dec-18 21:58 44.663001 -119.763559 112 33111ft 498kts
23-Dec-18 21:59 44.611207 -119.583094 113 33110ft 496kts
23-Dec-18 22:00 44.558638 -119.403949 113 33111ft 499kts
23-Dec-18 22:01 44.505382 -119.223465 113 33113ft 503kts
23-Dec-18 22:02 44.451384 -119.041728 114 33115ft 505kts
23-Dec-18 22:03 44.397145 -118.860481 114 33116ft 506kts
23-Dec-18 22:04 44.342954 -118.680640 114 31624ft 491kts
23-Dec-18 22:05 44.290718 -118.508536 114 29230ft 472kts
23-Dec-18 22:06 44.240253 -118.343350 115 26837ft 455kts
23-Dec-18 22:07 44.191115 -118.183541 116 24431ft 440kts
23-Dec-18 22:08 44.143483 -118.029556 116 21718ft 423kts
23-Dec-18 22:09 44.097672 -117.882351 116 19023ft 408kts
23-Dec-18 22:11 44.053116 -117.739985 115 16322ft 394kts
23-Dec-18 22:12 44.009934 -117.602743 115 13630ft 382kts
23-Dec-18 22:13 43.969520 -117.474840 115 12689ft 336kts
23-Dec-18 22:14 43.932672 -117.358698 116 10706ft 320kts
23-Dec-18 22:15 43.898421 -117.251120 117 9197ft 292kts
23-Dec-18 22:16 43.866515 -117.151370 116 8082ft 273kts
23-Dec-18 22:17 43.836335 -117.057349 116 8041ft 265kts
23-Dec-18 22:18 43.806048 -116.963726 116 8043ft 265kts
23-Dec-18 22:19 43.776133 -116.871680 117 8039ft 260kts
23-Dec-18 22:20 43.746229 -116.779222 116 8000ft 258kts
23-Dec-18 22:21 43.717177 -116.688441 115 6179ft 251kts
23-Dec-18 22:22 43.690188 -116.604447 114 5025ft 219kts
23-Dec-18 22:23 43.667103 -116.531303 114 5028ft 212kts
23-Dec-18 22:24 43.642115 -116.453689 116 5026ft 208kts
23-Dec-18 22:25 43.618778 -116.386066 115 5001ft 167kts
23-Dec-18 22:26 43.601492 -116.334778 115 4321ft 136kts
23-Dec-18 22:27 43.585484 -116.289072 115 3620ft 130kts
23-Dec-18 22:28 43.570950 -116.245427 115 2954ft 121kts
23-Dec-18 22:29 43.564133 -116.225336 114 2874ft 13kts
23-Dec-18 22:29 43.563117 -116.225097 211 2874ft 3kts
23-Dec-18 22:31 43.563956 -116.229027 294 2874ft 13kts
23-Dec-18 22:32 43.565112 -116.233154 227 2874ft 9kts
23-Dec-18 22:32 43.563615 -116.234508 175 2874ft 0kts

Navigation Log

Ident Type
Flight plan parsing failed, navigation log unavailable